createdAt,value
2019-02-24T00:00:30.206Z,24.40
2019-02-24T00:01:30.198Z,22.90
2019-02-24T00:02:30.179Z,25.50
2019-02-24T00:03:30.221Z,27.90
2019-02-24T00:04:30.188Z,23.30
2019-02-24T00:05:30.149Z,25.30
2019-02-24T00:06:30.291Z,24.10
2019-02-24T00:07:30.141Z,24.20
2019-02-24T00:08:30.128Z,25.20
2019-02-24T00:09:30.142Z,23.90
2019-02-24T00:10:30.103Z,23.90
2019-02-24T00:11:30.102Z,25.10
2019-02-24T00:12:30.089Z,25.00
2019-02-24T00:13:30.146Z,23.40
2019-02-24T00:14:30.055Z,23.30
2019-02-24T00:15:30.050Z,23.00
2019-02-24T00:16:30.041Z,25.10
2019-02-24T00:17:30.032Z,22.00
2019-02-24T00:18:30.045Z,23.50
2019-02-24T00:19:30.039Z,21.80
2019-02-24T00:20:29.999Z,23.40
2019-02-24T00:21:29.994Z,25.00
2019-02-24T00:22:29.988Z,25.20
2019-02-24T00:23:29.970Z,23.10
2019-02-24T00:24:29.959Z,24.50
2019-02-24T00:25:29.967Z,22.80
2019-02-24T00:26:29.929Z,23.70
2019-02-24T00:27:29.933Z,25.60
2019-02-24T00:28:29.950Z,25.30
2019-02-24T00:29:29.933Z,25.30
2019-02-24T00:30:30.056Z,25.60
2019-02-24T00:31:29.899Z,22.80
2019-02-24T00:32:29.896Z,26.10
2019-02-24T00:33:29.873Z,25.50
2019-02-24T00:34:29.849Z,24.90
2019-02-24T00:35:29.846Z,27.40
2019-02-24T00:36:29.855Z,26.40
2019-02-24T00:37:29.920Z,26.00
2019-02-24T00:38:29.812Z,26.50
2019-02-24T00:39:29.802Z,27.70
2019-02-24T00:40:29.796Z,25.30
2019-02-24T00:41:29.784Z,25.50
2019-02-24T00:42:29.796Z,25.60
2019-02-24T00:43:29.768Z,25.60
2019-02-24T00:44:29.744Z,22.10
2019-02-24T00:45:29.736Z,24.90
2019-02-24T00:46:29.725Z,25.80
2019-02-24T00:47:29.744Z,25.70
2019-02-24T00:48:29.941Z,25.90
2019-02-24T00:49:29.722Z,27.60
2019-02-24T00:50:29.691Z,25.80
2019-02-24T00:51:29.680Z,25.30
2019-02-24T00:52:29.685Z,25.60
2019-02-24T00:53:29.661Z,25.30
2019-02-24T00:54:29.647Z,25.80
2019-02-24T00:55:30.689Z,24.20
2019-02-24T00:56:29.629Z,22.70
2019-02-24T00:57:30.081Z,27.60
2019-02-24T00:58:29.600Z,23.60
2019-02-24T00:59:29.604Z,25.40
2019-02-24T01:00:29.610Z,24.90
2019-02-24T01:01:29.705Z,26.50
2019-02-24T01:02:29.990Z,28.00
2019-02-24T01:03:29.571Z,26.40
2019-02-24T01:04:29.543Z,27.30
2019-02-24T01:05:29.542Z,27.60
2019-02-24T01:06:29.524Z,27.70
2019-02-24T01:07:29.524Z,24.40
2019-02-24T01:08:29.508Z,25.80
2019-02-24T01:09:29.495Z,25.60
2019-02-24T01:10:29.483Z,26.40
2019-02-24T01:11:29.469Z,26.90
2019-02-24T01:12:29.478Z,26.30
2019-02-24T01:13:29.482Z,24.80
2019-02-24T01:14:29.817Z,26.80
2019-02-24T01:15:29.435Z,23.80
2019-02-24T01:16:29.433Z,25.10
2019-02-24T01:17:29.436Z,24.90
2019-02-24T01:18:29.399Z,28.10
2019-02-24T01:19:29.419Z,26.20
2019-02-24T01:20:29.373Z,27.00
2019-02-24T01:21:29.366Z,26.00
2019-02-24T01:22:29.353Z,28.20
2019-02-24T01:23:29.348Z,25.10
2019-02-24T01:24:29.365Z,27.60
2019-02-24T01:25:29.343Z,26.20
2019-02-24T01:26:29.311Z,27.00
2019-02-24T01:27:29.341Z,26.70
2019-02-24T01:28:29.303Z,26.30
2019-02-24T01:29:29.284Z,21.80
2019-02-24T01:30:29.302Z,26.50
2019-02-24T01:31:29.256Z,24.90
2019-02-24T01:32:29.246Z,26.10
2019-02-24T01:33:29.243Z,25.90
2019-02-24T01:34:29.243Z,26.40
2019-02-24T01:35:29.223Z,25.20
2019-02-24T01:36:29.234Z,25.10
2019-02-24T01:37:29.206Z,24.00
2019-02-24T01:38:29.195Z,24.20
2019-02-24T01:39:29.199Z,25.30
2019-02-24T01:40:29.171Z,25.50
2019-02-24T01:41:29.184Z,27.40
2019-02-24T01:42:29.154Z,26.50
2019-02-24T01:43:29.136Z,24.50
2019-02-24T01:44:29.125Z,26.10
2019-02-24T01:45:29.133Z,21.10
2019-02-24T01:46:29.105Z,22.60
2019-02-24T01:47:29.101Z,24.10
2019-02-24T01:48:29.108Z,23.50
2019-02-24T01:49:29.084Z,21.60
2019-02-24T01:50:29.072Z,24.30
2019-02-24T01:51:29.073Z,24.40
2019-02-24T01:52:29.046Z,23.30
2019-02-24T01:53:29.032Z,26.00
2019-02-24T01:54:29.071Z,22.30
2019-02-24T01:55:29.018Z,24.50
2019-02-24T01:56:29.009Z,24.80
2019-02-24T01:57:29.020Z,27.70
2019-02-24T01:58:34.811Z,25.10
2019-02-24T01:59:30.003Z,25.10
2019-02-24T02:00:28.967Z,24.40
2019-02-24T02:01:28.954Z,26.80
2019-02-24T02:02:28.951Z,27.90
2019-02-24T02:03:28.930Z,26.00
2019-02-24T02:04:28.958Z,25.90
2019-02-24T02:05:28.964Z,27.20
2019-02-24T02:06:28.917Z,24.00
2019-02-24T02:07:28.900Z,24.70
2019-02-24T02:08:28.921Z,23.50
2019-02-24T02:09:28.876Z,25.50
2019-02-24T02:10:28.863Z,26.20
2019-02-24T02:11:28.851Z,27.60
2019-02-24T02:12:28.834Z,26.30
2019-02-24T02:13:28.849Z,25.90
2019-02-24T02:14:28.820Z,24.70
2019-02-24T02:15:28.803Z,26.00
2019-02-24T02:16:28.830Z,26.40
2019-02-24T02:17:28.782Z,25.70
2019-02-24T02:18:28.774Z,31.20
2019-02-24T02:19:28.770Z,28.20
2019-02-24T02:20:28.760Z,26.90
2019-02-24T02:21:28.752Z,27.90
2019-02-24T02:22:28.765Z,31.00
2019-02-24T02:23:28.724Z,28.60
2019-02-24T02:24:28.713Z,25.90
2019-02-24T02:25:28.717Z,26.70
2019-02-24T02:26:28.691Z,26.10
2019-02-24T02:27:28.687Z,29.00
2019-02-24T02:28:28.696Z,25.70
2019-02-24T02:29:28.686Z,26.60
2019-02-24T02:30:28.655Z,26.20
2019-02-24T02:31:28.651Z,25.30
2019-02-24T02:32:28.636Z,28.50
2019-02-24T02:33:28.639Z,26.10
2019-02-24T02:34:28.637Z,28.20
2019-02-24T02:35:28.617Z,26.20
2019-02-24T02:36:28.606Z,28.50
2019-02-24T02:37:28.594Z,27.50
2019-02-24T02:38:28.588Z,27.60
2019-02-24T02:39:28.568Z,30.00
2019-02-24T02:40:28.556Z,31.30
2019-02-24T02:41:28.543Z,30.70
2019-02-24T02:42:28.543Z,29.10
2019-02-24T02:43:28.548Z,29.40
2019-02-24T02:44:28.548Z,30.30
2019-02-24T02:45:28.512Z,29.50
2019-02-24T02:46:28.505Z,30.00
2019-02-24T02:47:28.543Z,29.50
2019-02-24T02:48:28.469Z,27.90
2019-02-24T02:49:28.476Z,28.80
2019-02-24T02:50:28.456Z,24.70
2019-02-24T02:51:28.444Z,28.50
2019-02-24T02:52:28.438Z,27.30
2019-02-24T02:53:28.428Z,27.40
2019-02-24T02:54:28.457Z,32.20
2019-02-24T02:55:28.396Z,30.00
2019-02-24T02:56:28.398Z,29.30
2019-02-24T02:57:28.375Z,26.80
2019-02-24T02:58:28.369Z,29.80
2019-02-24T02:59:28.362Z,27.20
2019-02-24T03:00:28.388Z,27.80
2019-02-24T03:01:28.334Z,24.40
2019-02-24T03:02:28.322Z,29.50
2019-02-24T03:03:28.319Z,26.10
2019-02-24T03:04:28.311Z,25.60
2019-02-24T03:05:28.302Z,25.90
2019-02-24T03:06:28.304Z,26.50
2019-02-24T03:07:28.289Z,26.70
2019-02-24T03:08:28.260Z,29.40
2019-02-24T03:09:28.248Z,26.30
2019-02-24T03:10:28.240Z,28.80
2019-02-24T03:11:28.256Z,26.80
2019-02-24T03:12:28.235Z,28.10
2019-02-24T03:13:28.215Z,24.90
2019-02-24T03:14:28.203Z,27.90
2019-02-24T03:15:28.193Z,25.40
2019-02-24T03:16:28.200Z,24.60
2019-02-24T03:17:28.173Z,29.80
2019-02-24T03:18:28.166Z,27.00
2019-02-24T03:19:28.150Z,27.60
2019-02-24T03:20:28.135Z,27.20
2019-02-24T03:21:28.148Z,27.30
2019-02-24T03:22:31.065Z,29.00
2019-02-24T03:23:28.120Z,27.30
2019-02-24T03:24:28.113Z,25.00
2019-02-24T03:25:28.091Z,27.40
2019-02-24T03:26:28.082Z,28.80
2019-02-24T03:27:28.088Z,27.40
2019-02-24T03:28:28.054Z,26.90
2019-02-24T03:29:28.046Z,27.10
2019-02-24T03:30:28.045Z,28.80
2019-02-24T03:31:28.042Z,28.10
2019-02-24T03:32:28.050Z,27.50
2019-02-24T03:33:28.026Z,25.60
2019-02-24T03:34:27.992Z,28.40
2019-02-24T03:35:27.989Z,26.80
2019-02-24T03:36:27.986Z,26.80
2019-02-24T03:37:27.968Z,28.10
2019-02-24T03:38:27.981Z,26.10
2019-02-24T03:39:27.944Z,28.00
2019-02-24T03:40:27.932Z,28.60
2019-02-24T03:41:27.928Z,27.40
2019-02-24T03:42:27.924Z,27.70
2019-02-24T03:43:27.931Z,26.60
2019-02-24T03:44:27.901Z,26.10
2019-02-24T03:45:27.922Z,28.70
2019-02-24T03:46:27.891Z,26.60
2019-02-24T03:47:27.880Z,26.40
2019-02-24T03:48:27.878Z,25.80
2019-02-24T03:49:27.846Z,28.30
2019-02-24T03:50:27.850Z,29.50
2019-02-24T03:51:27.825Z,27.40
2019-02-24T03:52:27.808Z,29.50
2019-02-24T03:53:27.835Z,27.10
2019-02-24T03:54:28.265Z,24.60
2019-02-24T03:55:27.790Z,27.00
2019-02-24T03:56:27.778Z,25.80
2019-02-24T03:57:27.762Z,23.10
2019-02-24T03:58:27.755Z,27.90
2019-02-24T03:59:27.756Z,24.80
2019-02-24T04:00:27.726Z,25.90
2019-02-24T04:01:27.723Z,26.10
2019-02-24T04:02:27.708Z,26.50
2019-02-24T04:03:27.701Z,27.00
2019-02-24T04:04:27.714Z,26.40
2019-02-24T04:05:27.716Z,25.80
2019-02-24T04:06:28.561Z,25.20
2019-02-24T04:07:27.659Z,26.40
2019-02-24T04:08:27.653Z,25.30
2019-02-24T04:09:27.641Z,27.90
2019-02-24T04:10:27.629Z,25.80
2019-02-24T04:11:27.633Z,24.80
2019-02-24T04:12:27.602Z,24.80
2019-02-24T04:13:27.592Z,25.10
2019-02-24T04:14:27.629Z,24.00
2019-02-24T04:15:27.589Z,23.10
2019-02-24T04:16:27.592Z,24.50
2019-02-24T04:17:27.558Z,25.80
2019-02-24T04:18:27.557Z,26.30
2019-02-24T04:19:27.532Z,25.30
2019-02-24T04:20:27.520Z,22.50
2019-02-24T04:21:27.554Z,24.30
2019-02-24T04:22:27.510Z,21.90
2019-02-24T04:23:27.490Z,20.70
2019-02-24T04:24:27.479Z,22.50
2019-02-24T04:25:27.474Z,23.00
2019-02-24T04:26:27.457Z,21.30
2019-02-24T04:27:27.485Z,20.80
2019-02-24T04:28:27.458Z,20.60
2019-02-24T04:29:27.433Z,20.20
2019-02-24T04:30:27.432Z,25.00
2019-02-24T04:31:27.407Z,21.00
2019-02-24T04:32:27.398Z,24.00
2019-02-24T04:33:27.407Z,21.20
2019-02-24T04:34:27.400Z,23.70
2019-02-24T04:35:27.372Z,21.30
2019-02-24T04:36:27.372Z,22.40
2019-02-24T04:37:27.377Z,22.70
2019-02-24T04:38:27.337Z,21.20
2019-02-24T04:39:27.333Z,23.10
2019-02-24T04:40:27.327Z,23.10
2019-02-24T04:41:27.315Z,24.70
2019-02-24T04:42:27.312Z,21.40
2019-02-24T04:43:27.321Z,24.40
2019-02-24T04:44:27.273Z,22.30
2019-02-24T04:45:27.265Z,24.30
2019-02-24T04:46:27.254Z,23.60
2019-02-24T04:47:27.600Z,22.20
2019-02-24T04:48:27.296Z,24.40
2019-02-24T04:49:27.268Z,23.40
2019-02-24T04:50:27.240Z,23.90
2019-02-24T04:51:27.208Z,20.40
2019-02-24T04:52:27.190Z,23.50
2019-02-24T04:53:27.191Z,22.80
2019-02-24T04:54:27.198Z,22.90
2019-02-24T04:55:27.163Z,20.60
2019-02-24T04:56:27.153Z,21.00
2019-02-24T04:57:27.143Z,21.90
2019-02-24T04:58:27.136Z,22.60
2019-02-24T04:59:34.743Z,21.70
2019-02-24T05:00:28.121Z,20.90
2019-02-24T05:01:27.108Z,22.40
2019-02-24T05:02:27.098Z,22.90
2019-02-24T05:03:27.077Z,21.40
2019-02-24T05:04:27.099Z,21.40
2019-02-24T05:05:27.066Z,22.00
2019-02-24T05:06:27.048Z,22.40
2019-02-24T05:07:27.045Z,22.10
2019-02-24T05:08:27.043Z,21.10
2019-02-24T05:09:27.018Z,23.20
2019-02-24T05:10:27.029Z,23.20
2019-02-24T05:11:27.012Z,20.90
2019-02-24T05:12:26.999Z,22.00
2019-02-24T05:13:26.985Z,21.50
2019-02-24T05:14:26.988Z,25.40
2019-02-24T05:15:26.956Z,23.50
2019-02-24T05:16:26.946Z,23.00
2019-02-24T05:17:26.989Z,22.50
2019-02-24T05:18:26.942Z,22.40
2019-02-24T05:19:26.919Z,21.10
2019-02-24T05:20:26.913Z,19.90
2019-02-24T05:21:26.923Z,21.00
2019-02-24T05:22:26.888Z,21.60
2019-02-24T05:23:26.872Z,20.40
2019-02-24T05:24:26.880Z,19.30
2019-02-24T05:25:26.860Z,21.70
2019-02-24T05:26:26.883Z,23.40
2019-02-24T05:27:26.831Z,19.70
2019-02-24T05:28:26.820Z,20.50
2019-02-24T05:29:26.813Z,22.00
2019-02-24T05:30:26.809Z,20.80
2019-02-24T05:31:26.799Z,20.10
2019-02-24T05:32:26.807Z,20.10
2019-02-24T05:33:26.776Z,22.30
2019-02-24T05:34:26.766Z,20.10
2019-02-24T05:35:26.755Z,23.30
2019-02-24T05:36:26.746Z,19.60
2019-02-24T05:37:26.749Z,21.40
2019-02-24T05:38:26.722Z,20.80
2019-02-24T05:39:26.721Z,22.00
2019-02-24T05:40:26.732Z,20.80
2019-02-24T05:41:26.688Z,19.80
2019-02-24T05:42:26.699Z,22.20
2019-02-24T05:43:26.679Z,23.80
2019-02-24T05:44:26.667Z,22.70
2019-02-24T05:45:26.653Z,23.30
2019-02-24T05:46:26.711Z,23.80
2019-02-24T05:47:26.650Z,22.90
2019-02-24T05:48:26.630Z,23.90
2019-02-24T05:49:26.605Z,24.50
2019-02-24T05:50:26.599Z,23.60
2019-02-24T05:51:26.593Z,23.80
2019-02-24T05:52:26.611Z,21.20
2019-02-24T05:53:26.569Z,24.70
2019-02-24T05:54:26.561Z,23.50
2019-02-24T05:55:26.543Z,23.60
2019-02-24T05:56:26.539Z,21.60
2019-02-24T05:57:26.530Z,22.70
2019-02-24T05:58:26.556Z,21.90
2019-02-24T05:59:26.504Z,22.20
2019-02-24T06:00:26.494Z,23.00
2019-02-24T06:01:26.490Z,22.30
2019-02-24T06:02:26.479Z,24.50
2019-02-24T06:03:26.469Z,23.10
2019-02-24T06:04:26.480Z,22.20
2019-02-24T06:05:26.506Z,23.10
2019-02-24T06:06:26.438Z,23.00
2019-02-24T06:07:26.424Z,25.30
2019-02-24T06:08:26.413Z,22.90
2019-02-24T06:09:26.422Z,25.00
2019-02-24T06:10:26.392Z,23.20
2019-02-24T06:11:26.388Z,25.00
2019-02-24T06:12:26.397Z,22.80
2019-02-24T06:13:26.362Z,23.50
2019-02-24T06:14:26.374Z,24.30
2019-02-24T06:15:26.362Z,22.10
2019-02-24T06:16:26.341Z,21.70
2019-02-24T06:17:26.342Z,21.30
2019-02-24T06:18:26.316Z,21.70
2019-02-24T06:19:26.295Z,22.00
2019-02-24T06:20:26.344Z,24.70
2019-02-24T06:21:26.275Z,21.60
2019-02-24T06:22:26.281Z,22.30
2019-02-24T06:23:26.262Z,24.70
2019-02-24T06:24:26.258Z,21.90
2019-02-24T06:25:26.260Z,23.10
2019-02-24T06:26:26.246Z,23.60
2019-02-24T06:27:26.214Z,24.10
2019-02-24T06:28:26.205Z,24.10
2019-02-24T06:29:26.209Z,25.50
2019-02-24T06:30:26.209Z,22.60
2019-02-24T06:31:26.200Z,24.00
2019-02-24T06:32:26.167Z,24.40
2019-02-24T06:33:26.156Z,26.20
2019-02-24T06:34:26.145Z,24.30
2019-02-24T06:35:26.138Z,25.40
2019-02-24T06:36:26.156Z,25.30
2019-02-24T06:37:26.119Z,22.40
2019-02-24T06:38:26.116Z,23.30
2019-02-24T06:39:26.090Z,23.70
2019-02-24T06:40:26.084Z,24.90
2019-02-24T06:41:26.089Z,22.10
2019-02-24T06:42:26.061Z,23.60
2019-02-24T06:43:26.056Z,21.80
2019-02-24T06:44:26.047Z,22.70
2019-02-24T06:45:26.034Z,23.30
2019-02-24T06:46:26.046Z,23.90
2019-02-24T06:47:26.016Z,22.10
2019-02-24T06:48:26.009Z,21.80
2019-02-24T06:49:25.996Z,21.60
2019-02-24T06:50:34.887Z,22.20
2019-02-24T06:51:27.035Z,21.10
2019-02-24T06:52:28.006Z,21.80
2019-02-24T06:53:25.972Z,21.50
2019-02-24T06:54:25.941Z,22.60
2019-02-24T06:55:25.932Z,21.90
2019-02-24T06:56:25.927Z,22.30
2019-02-24T06:57:25.938Z,24.10
2019-02-24T06:58:25.907Z,23.40
2019-02-24T06:59:25.885Z,25.20
2019-02-24T07:00:25.880Z,24.80
2019-02-24T07:01:25.874Z,24.70
2019-02-24T07:02:25.859Z,25.40
2019-02-24T07:03:25.860Z,25.40
2019-02-24T07:04:25.843Z,23.90
2019-02-24T07:05:25.822Z,24.00
2019-02-24T07:06:25.815Z,23.50
2019-02-24T07:07:25.812Z,25.00
2019-02-24T07:08:25.829Z,22.30
2019-02-24T07:09:25.790Z,24.10
2019-02-24T07:10:25.782Z,22.90
2019-02-24T07:11:25.763Z,23.10
2019-02-24T07:12:25.752Z,23.70
2019-02-24T07:13:25.740Z,23.20
2019-02-24T07:14:25.754Z,24.40
2019-02-24T07:15:25.725Z,23.00
2019-02-24T07:16:25.719Z,22.90
2019-02-24T07:17:25.702Z,22.50
2019-02-24T07:18:25.690Z,22.80
2019-02-24T07:19:25.683Z,23.00
2019-02-24T07:20:25.697Z,22.40
2019-02-24T07:21:25.670Z,22.20
2019-02-24T07:22:25.657Z,23.30
2019-02-24T07:23:25.638Z,23.30
2019-02-24T07:24:25.628Z,23.80
2019-02-24T07:25:25.636Z,21.90
2019-02-24T07:26:25.604Z,23.60
2019-02-24T07:27:25.603Z,21.50
2019-02-24T07:28:25.597Z,23.60
2019-02-24T07:29:25.588Z,23.00
2019-02-24T07:30:25.571Z,22.40
2019-02-24T07:31:25.576Z,24.10
2019-02-24T07:32:25.548Z,23.30
2019-02-24T07:33:25.595Z,26.20
2019-02-24T07:34:25.538Z,24.00
2019-02-24T07:35:25.516Z,22.60
2019-02-24T07:36:25.533Z,23.50
2019-02-24T07:37:25.506Z,24.40
2019-02-24T07:38:25.486Z,25.10
2019-02-24T07:39:25.475Z,24.20
2019-02-24T07:40:25.473Z,21.70
2019-02-24T07:41:25.476Z,22.90
2019-02-24T07:42:25.485Z,24.00
2019-02-24T07:43:25.432Z,23.80
2019-02-24T07:44:25.419Z,23.00
2019-02-24T07:45:25.411Z,23.80
2019-02-24T07:46:25.453Z,24.10
2019-02-24T07:47:25.395Z,22.60
2019-02-24T07:48:25.414Z,22.60
2019-02-24T07:49:25.370Z,25.40
2019-02-24T07:50:25.358Z,22.90
2019-02-24T07:51:25.355Z,23.80
2019-02-24T07:52:25.344Z,22.30
2019-02-24T07:53:25.333Z,24.90
2019-02-24T07:54:25.347Z,24.40
2019-02-24T07:55:25.308Z,25.40
2019-02-24T07:56:25.298Z,25.10
2019-02-24T07:57:25.310Z,22.90
2019-02-24T07:58:25.315Z,26.50
2019-02-24T07:59:25.295Z,24.00
2019-02-24T08:00:31.934Z,24.40
2019-02-24T08:01:26.289Z,24.00
2019-02-24T08:02:25.286Z,22.10
2019-02-24T08:03:25.247Z,23.50
2019-02-24T08:04:25.519Z,21.80
2019-02-24T08:05:25.205Z,24.50
2019-02-24T08:06:25.225Z,23.90
2019-02-24T08:07:25.177Z,24.40
2019-02-24T08:08:25.185Z,27.50
2019-02-24T08:09:25.160Z,23.80
2019-02-24T08:10:25.151Z,24.10
2019-02-24T08:11:25.142Z,23.90
2019-02-24T08:12:25.136Z,22.80
2019-02-24T08:13:25.132Z,25.00
2019-02-24T08:14:25.137Z,22.50
2019-02-24T08:15:25.094Z,23.50
2019-02-24T08:16:25.085Z,23.20
2019-02-24T08:17:25.075Z,24.60
2019-02-24T08:18:25.082Z,23.60
2019-02-24T08:19:25.358Z,23.60
2019-02-24T08:20:25.049Z,24.70
2019-02-24T08:21:25.069Z,23.20
2019-02-24T08:22:25.023Z,24.20
2019-02-24T08:23:25.019Z,25.70
2019-02-24T08:24:25.139Z,24.10
2019-02-24T08:25:25.186Z,25.70
2019-02-24T08:26:25.024Z,22.40
2019-02-24T08:27:24.991Z,26.00
2019-02-24T08:28:24.960Z,24.00
2019-02-24T08:29:24.958Z,22.90
2019-02-24T08:30:24.974Z,25.30
2019-02-24T08:31:24.935Z,25.00
2019-02-24T08:32:24.932Z,26.00
2019-02-24T08:33:24.988Z,25.60
2019-02-24T08:34:24.965Z,26.90
2019-02-24T08:35:24.933Z,24.70
2019-02-24T08:36:24.917Z,25.10
2019-02-24T08:37:24.871Z,24.10
2019-02-24T08:38:24.870Z,25.70
2019-02-24T08:39:24.935Z,26.90
2019-02-24T08:40:24.840Z,24.80
2019-02-24T08:41:24.851Z,26.40
2019-02-24T08:42:24.826Z,24.50
2019-02-24T08:43:24.810Z,26.00
2019-02-24T08:44:24.799Z,23.70
2019-02-24T08:45:24.798Z,24.70
2019-02-24T08:46:24.794Z,22.70
2019-02-24T08:47:24.870Z,23.40
2019-02-24T08:48:24.763Z,26.50
2019-02-24T08:49:24.896Z,24.30
2019-02-24T08:50:24.727Z,24.20
2019-02-24T08:51:24.724Z,23.50
2019-02-24T08:52:24.768Z,23.00
2019-02-24T08:53:24.723Z,23.00
2019-02-24T08:54:24.697Z,21.90
2019-02-24T08:55:24.684Z,26.00
2019-02-24T08:56:24.837Z,23.00
2019-02-24T08:57:24.678Z,25.10
2019-02-24T08:58:24.683Z,21.80
2019-02-24T08:59:24.632Z,23.30
2019-02-24T09:00:24.621Z,22.60
2019-02-24T09:01:24.612Z,22.50
2019-02-24T09:02:24.688Z,23.90
2019-02-24T09:03:24.629Z,22.20
2019-02-24T09:04:24.647Z,23.10
2019-02-24T09:05:24.576Z,19.90
2019-02-24T09:06:24.567Z,20.50
2019-02-24T09:07:24.551Z,20.80
2019-02-24T09:08:25.103Z,21.30
2019-02-24T09:09:24.551Z,21.10
2019-02-24T09:10:24.521Z,20.80
2019-02-24T09:11:24.568Z,18.70
2019-02-24T09:12:24.500Z,19.80
2019-02-24T09:13:24.542Z,21.40
2019-02-24T09:14:24.603Z,19.60
2019-02-24T09:15:24.481Z,17.80
2019-02-24T09:16:24.459Z,18.50
2019-02-24T09:17:24.466Z,19.00
2019-02-24T09:18:24.504Z,19.10
2019-02-24T09:19:24.419Z,18.20
2019-02-24T09:20:24.428Z,18.40
2019-02-24T09:21:24.491Z,19.60
2019-02-24T09:22:24.427Z,19.30
2019-02-24T09:23:24.417Z,19.50
2019-02-24T09:24:24.418Z,18.90
2019-02-24T09:25:24.360Z,17.70
2019-02-24T09:26:24.420Z,19.40
2019-02-24T09:27:24.428Z,19.50
2019-02-24T09:28:24.390Z,18.00
2019-02-24T09:29:24.338Z,19.80
2019-02-24T09:30:24.349Z,18.50
2019-02-24T09:31:24.347Z,16.90
2019-02-24T09:32:24.286Z,17.20
2019-02-24T09:33:24.281Z,16.40
2019-02-24T09:34:24.276Z,17.70
2019-02-24T09:35:24.302Z,18.00
2019-02-24T09:36:24.249Z,16.30
2019-02-24T09:37:24.239Z,17.20
2019-02-24T09:38:24.232Z,18.30
2019-02-24T09:39:24.215Z,16.60
2019-02-24T09:40:24.217Z,16.10
2019-02-24T09:41:25.263Z,16.80
2019-02-24T09:42:24.190Z,17.20
2019-02-24T09:43:24.190Z,17.90
2019-02-24T09:44:24.155Z,18.10
2019-02-24T09:45:24.294Z,18.80
2019-02-24T09:46:24.166Z,19.50
2019-02-24T09:47:24.130Z,16.60
2019-02-24T09:48:24.127Z,16.40
2019-02-24T09:49:24.108Z,18.30
2019-02-24T09:50:24.114Z,18.00
2019-02-24T09:51:24.147Z,17.70
2019-02-24T09:52:24.103Z,17.50
2019-02-24T09:53:24.105Z,16.70
2019-02-24T09:54:24.628Z,17.60
2019-02-24T09:55:24.120Z,18.30
2019-02-24T09:56:24.051Z,18.20
2019-02-24T09:57:24.039Z,17.60
2019-02-24T09:58:24.006Z,18.40
2019-02-24T09:59:24.002Z,17.70
2019-02-24T10:00:23.986Z,16.60
2019-02-24T10:01:24.332Z,16.80
2019-02-24T10:02:23.980Z,16.50
2019-02-24T10:03:23.978Z,19.20
2019-02-24T10:04:23.943Z,17.10
2019-02-24T10:05:24.690Z,17.40
2019-02-24T10:06:26.649Z,17.30
2019-02-24T10:07:23.987Z,17.10
2019-02-24T10:08:23.908Z,17.20
2019-02-24T10:09:23.918Z,17.90
2019-02-24T10:10:23.927Z,16.30
2019-02-24T10:11:23.869Z,16.50
2019-02-24T10:12:23.875Z,17.20
2019-02-24T10:13:23.850Z,18.30
2019-02-24T10:14:23.848Z,17.70
2019-02-24T10:15:23.827Z,19.40
2019-02-24T10:16:23.850Z,18.90
2019-02-24T10:17:24.629Z,18.40
2019-02-24T10:18:23.797Z,17.30
2019-02-24T10:19:23.786Z,18.30
2019-02-24T10:20:23.785Z,17.80
2019-02-24T10:21:23.789Z,18.60
2019-02-24T10:22:23.757Z,16.70
2019-02-24T10:23:24.636Z,17.10
2019-02-24T10:24:23.729Z,17.60
2019-02-24T10:25:23.718Z,17.50
2019-02-24T10:26:23.747Z,17.50
2019-02-24T10:27:23.725Z,16.70
2019-02-24T10:28:23.752Z,17.80
2019-02-24T10:29:23.677Z,18.10
2019-02-24T10:30:23.711Z,16.30
2019-02-24T10:31:23.667Z,17.30
2019-02-24T10:32:23.666Z,16.30
2019-02-24T10:33:23.654Z,16.60
2019-02-24T10:34:23.673Z,15.20
2019-02-24T10:35:23.634Z,17.10
2019-02-24T10:36:23.605Z,17.20
2019-02-24T10:37:23.592Z,15.20
2019-02-24T10:38:23.597Z,15.10
2019-02-24T10:39:29.727Z,15.50
2019-02-24T10:40:24.593Z,15.20
2019-02-24T10:41:23.564Z,16.50
2019-02-24T10:42:23.547Z,15.90
2019-02-24T10:43:23.535Z,16.20
2019-02-24T10:44:23.536Z,14.40
2019-02-24T10:45:23.561Z,15.90
2019-02-24T10:46:23.515Z,16.40
2019-02-24T10:47:23.499Z,14.20
2019-02-24T10:48:23.481Z,14.70
2019-02-24T10:49:23.479Z,16.30
2019-02-24T10:50:23.465Z,14.50
2019-02-24T10:51:25.340Z,15.80
2019-02-24T10:52:23.452Z,15.50
2019-02-24T10:53:23.434Z,14.40
2019-02-24T10:54:23.438Z,15.80
2019-02-24T10:55:23.412Z,14.70
2019-02-24T10:56:23.433Z,14.00
2019-02-24T10:57:23.417Z,14.50
2019-02-24T10:58:23.383Z,14.70
2019-02-24T10:59:23.375Z,13.40
2019-02-24T11:00:23.368Z,14.00
2019-02-24T11:01:29.631Z,13.00
2019-02-24T11:02:24.336Z,14.20
2019-02-24T11:03:23.383Z,12.80
2019-02-24T11:04:23.335Z,13.80
2019-02-24T11:05:23.311Z,14.00
2019-02-24T11:06:23.306Z,14.60
2019-02-24T11:07:23.312Z,14.30
2019-02-24T11:08:23.293Z,12.00
2019-02-24T11:09:23.284Z,14.70
2019-02-24T11:10:23.269Z,13.60
2019-02-24T11:11:23.304Z,14.30
2019-02-24T11:12:23.265Z,13.50
2019-02-24T11:13:23.258Z,13.60
2019-02-24T11:14:23.231Z,14.60
2019-02-24T11:15:23.205Z,14.80
2019-02-24T11:16:23.206Z,12.70
2019-02-24T11:17:23.188Z,11.90
2019-02-24T11:18:23.226Z,10.80
2019-02-24T11:19:23.168Z,11.80
2019-02-24T11:20:23.214Z,11.30
2019-02-24T11:21:23.161Z,11.90
2019-02-24T11:22:23.145Z,11.60
2019-02-24T11:23:23.155Z,11.00
2019-02-24T11:24:23.166Z,13.00
2019-02-24T11:25:24.606Z,12.40
2019-02-24T11:26:23.111Z,12.30
2019-02-24T11:27:23.096Z,11.30
2019-02-24T11:28:23.102Z,12.80
2019-02-24T11:29:23.064Z,12.40
2019-02-24T11:30:23.127Z,12.80
2019-02-24T11:31:23.057Z,11.60
2019-02-24T11:32:23.049Z,13.10
2019-02-24T11:33:24.058Z,11.50
2019-02-24T11:34:23.056Z,11.10
2019-02-24T11:35:23.012Z,12.40
2019-02-24T11:36:23.014Z,10.70
2019-02-24T11:37:22.998Z,9.50
2019-02-24T11:38:23.016Z,10.30
2019-02-24T11:39:22.975Z,10.60
2019-02-24T11:40:22.991Z,10.20
2019-02-24T11:41:22.970Z,11.20
2019-02-24T11:42:22.984Z,9.50
2019-02-24T11:43:22.969Z,10.60
2019-02-24T11:44:22.935Z,10.20
2019-02-24T11:45:22.940Z,10.30
2019-02-24T11:46:22.927Z,10.90
2019-02-24T11:47:22.918Z,10.50
2019-02-24T11:48:22.915Z,11.00
2019-02-24T11:49:24.083Z,10.30
2019-02-24T11:50:22.890Z,11.30
2019-02-24T11:51:22.909Z,12.60
2019-02-24T11:52:22.857Z,9.70
2019-02-24T11:53:22.835Z,11.10
2019-02-24T11:54:22.857Z,10.60
2019-02-24T11:55:22.817Z,11.30
2019-02-24T11:56:22.815Z,11.70
2019-02-24T11:57:22.808Z,11.90
2019-02-24T11:58:22.788Z,11.40
2019-02-24T11:59:22.780Z,12.60
2019-02-24T12:00:22.795Z,11.80
2019-02-24T12:01:22.754Z,10.30
2019-02-24T12:02:22.786Z,10.00
2019-02-24T12:03:22.750Z,10.20
2019-02-24T12:04:22.741Z,10.70
2019-02-24T12:05:22.823Z,10.30
2019-02-24T12:06:22.709Z,9.40
2019-02-24T12:07:22.721Z,10.10
2019-02-24T12:08:22.744Z,10.10
2019-02-24T12:09:22.692Z,10.30
2019-02-24T12:10:22.688Z,10.50
2019-02-24T12:11:22.706Z,9.50
2019-02-24T12:12:22.639Z,10.90
2019-02-24T12:13:22.689Z,9.70
2019-02-24T12:14:22.633Z,10.00
2019-02-24T12:15:22.639Z,10.30
2019-02-24T12:16:22.639Z,10.10
2019-02-24T12:17:22.639Z,9.70
2019-02-24T12:18:22.630Z,10.20
2019-02-24T12:19:22.583Z,8.80
2019-02-24T12:20:22.593Z,9.10
2019-02-24T12:21:22.560Z,9.50
2019-02-24T12:22:22.631Z,9.40
2019-02-24T12:23:22.539Z,10.00
2019-02-24T12:24:22.517Z,8.80
2019-02-24T12:25:22.509Z,10.30
2019-02-24T12:26:22.508Z,10.00
2019-02-24T12:27:22.525Z,9.00
2019-02-24T12:28:23.524Z,9.30
2019-02-24T12:29:22.499Z,9.70
2019-02-24T12:30:22.457Z,12.20
2019-02-24T12:31:22.462Z,10.00
2019-02-24T12:32:22.450Z,9.40
2019-02-24T12:33:22.472Z,7.10
2019-02-24T12:34:22.423Z,8.20
2019-02-24T12:35:22.412Z,9.00
2019-02-24T12:36:22.392Z,9.20
2019-02-24T12:37:22.446Z,8.90
2019-02-24T12:38:22.387Z,8.00
2019-02-24T12:39:22.403Z,8.30
2019-02-24T12:40:22.417Z,8.00
2019-02-24T12:41:22.351Z,7.90
2019-02-24T12:42:22.343Z,8.40
2019-02-24T12:43:22.344Z,8.00
2019-02-24T12:44:22.345Z,8.70
2019-02-24T12:45:22.314Z,8.30
2019-02-24T12:46:22.320Z,8.50
2019-02-24T12:47:22.298Z,9.40
2019-02-24T12:48:22.273Z,7.80
2019-02-24T12:49:22.299Z,8.50
2019-02-24T12:50:22.267Z,8.40
2019-02-24T12:51:22.250Z,8.20
2019-02-24T12:52:22.240Z,10.60
2019-02-24T12:53:22.233Z,8.10